Time;durP1;ratioP1;P1;durP2;ratioP2;P2;SDS_P1;SDS_P2;PMS_P1;PMS_P2;Temp;Humidity;BMP_temperature;BMP_pressure;BME280_temperature;BME280_humidity;BME280_pressure;Samples;Min_cycle;Max_cycle;Signal;HPM_P1;HPM_P2
2021/12/03 00:01:06;;;;;;;;;43.75;38.25;17.40;99.90;;;;;;5074875;28;11556;-56
2021/12/03 00:03:37;;;;;;;;;42.75;38.75;17.40;99.90;;;;;;5058923;28;11548;-55
2021/12/03 00:06:09;;;;;;;;;41.50;37.50;17.40;99.90;;;;;;5063890;28;12322;-56
2021/12/03 00:08:38;;;;;;;;;48.25;41.50;17.40;99.90;;;;;;5063821;28;12638;-55
2021/12/03 00:11:11;;;;;;;;;41.25;37.75;17.40;99.90;;;;;;5055399;28;11742;-54
2021/12/03 00:13:44;;;;;;;;;37.25;34.75;17.40;99.90;;;;;;5060821;28;11489;-55
2021/12/03 00:16:15;;;;;;;;;37.25;35.00;17.40;99.90;;;;;;5061542;28;11628;-54
2021/12/03 00:18:46;;;;;;;;;41.00;37.50;17.40;99.90;;;;;;5059528;28;11601;-56
2021/12/03 00:21:17;;;;;;;;;46.00;40.75;17.40;99.90;;;;;;5068368;28;11720;-59
2021/12/03 00:23:48;;;;;;;;;43.00;38.50;17.40;99.90;;;;;;5062958;28;11688;-59
2021/12/03 00:26:18;;;;;;;;;49.25;42.50;17.40;99.90;;;;;;5058362;28;11571;-56
2021/12/03 00:28:50;;;;;;;;;42.50;38.00;17.50;99.90;;;;;;5059848;28;11596;-56
2021/12/03 00:31:22;;;;;;;;;49.00;42.00;17.40;99.90;;;;;;5063471;28;12433;-56
2021/12/03 00:33:53;;;;;;;;;49.75;42.25;17.40;99.90;;;;;;5064017;28;11576;-57
2021/12/03 00:36:25;;;;;;;;;16.00;13.50;17.40;99.90;;;;;;5057095;28;11773;-56
2021/12/03 00:38:59;;;;;;;;;47.50;41.00;17.40;99.90;;;;;;5063818;28;11553;-56
2021/12/03 00:41:33;;;;;;;;;45.75;40.25;17.40;99.90;;;;;;5058293;28;11550;-56
2021/12/03 00:44:03;;;;;;;;;48.50;41.00;17.40;99.90;;;;;;5055969;28;11551;-57
2021/12/03 00:46:33;;;;;;;;;48.50;41.00;17.40;99.90;;;;;;5036751;28;11587;-57
2021/12/03 00:49:03;;;;;;;;;41.25;38.00;17.40;99.90;;;;;;5063173;28;11541;-57
2021/12/03 00:51:34;;;;;;;;;46.25;40.50;17.40;99.90;;;;;;5059621;28;11519;-56
2021/12/03 00:54:04;;;;;;;;;51.25;43.75;17.40;99.90;;;;;;5056576;28;11675;-57
2021/12/03 00:56:34;;;;;;;;;54.00;45.75;17.40;99.90;;;;;;5056642;28;11744;-57
2021/12/03 00:59:05;;;;;;;;;49.25;42.25;17.40;99.90;;;;;;5069094;28;11578;-57
2021/12/03 01:01:35;;;;;;;;;52.00;44.75;17.30;99.90;;;;;;5058237;28;11548;-57
2021/12/03 01:04:09;;;;;;;;;50.25;43.50;17.30;99.90;;;;;;5056094;28;11545;-56
2021/12/03 01:06:41;;;;;;;;;49.50;42.50;17.30;99.90;;;;;;5062461;28;12321;-56
2021/12/03 01:09:12;;;;;;;;;48.00;41.00;17.30;99.90;;;;;;5059628;28;11540;-56
2021/12/03 01:11:45;;;;;;;;;48.75;40.75;17.30;99.90;;;;;;5063624;28;11553;-56
2021/12/03 01:14:16;;;;;;;;;54.00;45.50;17.30;99.90;;;;;;5062079;28;11568;-56
2021/12/03 01:16:46;;;;;;;;;51.25;42.75;17.30;99.90;;;;;;5062382;28;11642;-56
2021/12/03 01:19:17;;;;;;;;;50.50;42.75;17.20;99.90;;;;;;5059857;28;11601;-56
2021/12/03 01:21:49;;;;;;;;;52.25;44.50;17.30;99.90;;;;;;5064399;28;11529;-58
2021/12/03 01:24:19;;;;;;;;;49.25;42.25;17.20;99.90;;;;;;5071731;28;12710;-59
2021/12/03 01:26:54;;;;;;;;;52.75;44.50;17.20;99.90;;;;;;5061187;28;11599;-56
2021/12/03 01:29:25;;;;;;;;;52.75;44.25;17.20;99.90;;;;;;5063521;28;11549;-55
2021/12/03 01:31:56;;;;;;;;;54.50;45.50;17.10;99.90;;;;;;5064719;28;11543;-58
2021/12/03 01:34:27;;;;;;;;;53.50;44.75;17.10;99.90;;;;;;5064307;28;11559;-58
2021/12/03 01:36:58;;;;;;;;;55.75;46.25;17.10;99.90;;;;;;5068486;28;11579;-54
2021/12/03 01:39:28;;;;;;;;;56.50;46.75;17.10;99.90;;;;;;5067391;28;11608;-54
2021/12/03 01:42:00;;;;;;;;;56.50;46.00;17.10;99.90;;;;;;5066670;28;11571;-54
2021/12/03 01:44:31;;;;;;;;;61.00;50.00;17.00;99.90;;;;;;5063969;28;11603;-55
2021/12/03 01:47:02;;;;;;;;;52.25;44.25;17.00;99.90;;;;;;5065092;28;11580;-57
2021/12/03 01:49:33;;;;;;;;;55.50;46.50;17.00;99.90;;;;;;5064496;28;11562;-57
2021/12/03 01:52:04;;;;;;;;;53.00;44.75;17.00;99.90;;;;;;5059333;28;11583;-56
2021/12/03 01:54:35;;;;;;;;;58.75;48.25;17.00;99.90;;;;;;5064784;28;11589;-57
2021/12/03 01:57:07;;;;;;;;;63.00;52.00;17.00;99.90;;;;;;5076457;28;11574;-54
2021/12/03 01:59:37;;;;;;;;;66.00;52.25;16.90;99.90;;;;;;5072497;28;11590;-55
2021/12/03 02:02:08;;;;;;;;;65.25;53.00;16.90;99.90;;;;;;5058340;28;11553;-59
2021/12/03 02:04:40;;;;;;;;;67.33;56.33;16.90;99.90;;;;;;5069105;28;8827;-60
2021/12/03 02:07:10;;;;;;;;;67.33;57.33;16.90;99.90;;;;;;5064244;28;11629;-59
2021/12/03 02:09:41;;;;;;;;;67.67;57.00;16.80;99.90;;;;;;5062531;28;8853;-61
2021/12/03 02:12:12;;;;;;;;;70.33;61.67;16.80;99.90;;;;;;5063872;28;8851;-57
2021/12/03 02:14:43;;;;;;;;;65.00;53.33;16.80;99.90;;;;;;5059466;28;8854;-57
2021/12/03 02:17:13;;;;;;;;;68.67;56.33;16.80;99.90;;;;;;5058490;28;8860;-57
2021/12/03 02:19:44;;;;;;;;;64.00;53.00;16.80;99.90;;;;;;5062677;28;8888;-57
2021/12/03 02:22:14;;;;;;;;;60.67;50.67;16.70;99.90;;;;;;5061442;28;8805;-57
2021/12/03 02:24:47;;;;;;;;;57.00;47.00;16.70;99.90;;;;;;5057742;28;8844;-57
2021/12/03 02:27:17;;;;;;;;;46.25;39.75;16.70;99.90;;;;;;5053890;28;8872;-58
2021/12/03 02:29:47;;;;;;;;;48.75;41.00;16.70;99.90;;;;;;5063218;28;11590;-58
2021/12/03 02:32:17;;;;;;;;;46.50;39.50;16.60;99.90;;;;;;5060803;28;12390;-58
2021/12/03 02:34:47;;;;;;;;;44.00;38.25;16.60;99.90;;;;;;5060821;28;11568;-58
2021/12/03 02:37:18;;;;;;;;;46.25;40.25;16.50;99.90;;;;;;5058985;28;11559;-58
2021/12/03 02:39:48;;;;;;;;;54.50;45.00;16.50;99.90;;;;;;5060183;28;12929;-58
2021/12/03 02:42:18;;;;;;;;;50.75;43.25;16.40;99.90;;;;;;5057703;28;11567;-61
2021/12/03 02:44:51;;;;;;;;;37.75;33.50;16.40;99.90;;;;;;5059058;28;8848;-60
2021/12/03 02:47:21;;;;;;;;;31.75;29.25;16.30;99.90;;;;;;5060189;28;11576;-60
2021/12/03 02:49:51;;;;;;;;;24.00;24.00;16.30;99.90;;;;;;5062837;28;11625;-60
2021/12/03 02:52:21;;;;;;;;;26.25;26.25;16.30;99.90;;;;;;5064504;28;11555;-58
2021/12/03 02:54:53;;;;;;;;;21.75;21.75;16.30;99.90;;;;;;5062031;28;12312;-57
2021/12/03 02:57:24;;;;;;;;;25.00;25.00;16.20;99.90;;;;;;5066023;28;11497;-58
2021/12/03 02:59:54;;;;;;;;;23.25;23.25;16.20;99.90;;;;;;5060013;28;11542;-58
2021/12/03 03:02:24;;;;;;;;;20.00;20.00;16.20;99.90;;;;;;5063710;28;11511;-56
2021/12/03 03:04:55;;;;;;;;;22.25;22.25;16.20;99.90;;;;;;5057536;28;11501;-58
2021/12/03 03:07:29;;;;;;;;;22.50;21.00;16.10;99.90;;;;;;5056437;28;11476;-58
2021/12/03 03:10:03;;;;;;;;;25.25;25.25;16.10;99.90;;;;;;5060075;28;11514;-61
2021/12/03 03:12:33;;;;;;;;;25.00;25.00;16.10;99.90;;;;;;5063615;28;11507;-58
2021/12/03 03:15:03;;;;;;;;;21.25;21.25;16.00;99.90;;;;;;5057919;28;11531;-58
2021/12/03 03:17:35;;;;;;;;;21.75;21.75;15.90;99.90;;;;;;5063962;28;11517;-58
2021/12/03 03:20:07;;;;;;;;;21.00;20.25;16.00;99.90;;;;;;5049693;28;11516;-58
2021/12/03 03:22:41;;;;;;;;;24.75;24.75;15.90;99.90;;;;;;5058649;28;11510;-58
2021/12/03 03:25:14;;;;;;;;;22.75;22.75;15.90;99.90;;;;;;5057256;28;12342;-58
2021/12/03 03:27:47;;;;;;;;;27.75;27.75;15.90;99.90;;;;;;5056735;28;11476;-58
2021/12/03 03:30:19;;;;;;;;;20.25;20.25;15.80;99.90;;;;;;5041541;28;11592;-57
2021/12/03 03:32:51;;;;;;;;;24.50;24.50;15.80;99.90;;;;;;5059604;28;11531;-57
2021/12/03 03:35:22;;;;;;;;;24.00;24.00;15.70;99.90;;;;;;5055502;28;11624;-57
2021/12/03 03:37:53;;;;;;;;;29.00;29.00;15.70;99.90;;;;;;5063526;28;11485;-57
2021/12/03 03:40:24;;;;;;;;;26.00;26.00;15.70;99.90;;;;;;5057837;28;11575;-57
2021/12/03 03:42:57;;;;;;;;;22.75;22.25;15.70;99.90;;;;;;5061271;28;11618;-57
2021/12/03 03:45:29;;;;;;;;;26.25;26.25;15.70;99.90;;;;;;5058497;28;11536;-57
2021/12/03 03:48:00;;;;;;;;;27.25;24.75;15.70;99.90;;;;;;5059791;28;11507;-57
2021/12/03 03:50:32;;;;;;;;;26.50;26.50;15.60;99.90;;;;;;5058623;28;11631;-57
2021/12/03 03:53:03;;;;;;;;;23.00;23.00;15.60;99.90;;;;;;5061931;28;11510;-57
2021/12/03 03:55:34;;;;;;;;;26.25;26.25;15.60;99.90;;;;;;5052919;28;11560;-57
2021/12/03 03:58:06;;;;;;;;;26.50;26.50;15.50;99.90;;;;;;5062123;28;11555;-59
2021/12/03 04:00:42;;;;;;;;;28.00;28.00;15.50;99.90;;;;;;5055551;28;11686;-57
2021/12/03 04:03:13;;;;;;;;;31.75;30.00;15.50;99.90;;;;;;5067945;28;11509;-58
2021/12/03 04:05:44;;;;;;;;;27.00;25.25;15.50;99.90;;;;;;5057149;28;11570;-59
2021/12/03 04:08:15;;;;;;;;;29.50;26.75;15.40;99.90;;;;;;5057348;28;11591;-58
2021/12/03 04:10:47;;;;;;;;;35.50;33.00;15.40;99.90;;;;;;5058771;28;11503;-61
2021/12/03 04:13:20;;;;;;;;;27.00;26.00;15.40;99.90;;;;;;5057229;28;11592;-57
2021/12/03 04:15:52;;;;;;;;;30.00;29.50;15.30;99.90;;;;;;5061626;28;11591;-58
2021/12/03 04:18:22;;;;;;;;;29.25;29.25;15.30;99.90;;;;;;5057342;28;11614;-57
2021/12/03 04:20:53;;;;;;;;;26.00;26.00;15.30;99.90;;;;;;5057835;28;11555;-57
2021/12/03 04:23:24;;;;;;;;;27.50;27.50;15.30;99.90;;;;;;5059396;28;11544;-57
2021/12/03 04:25:55;;;;;;;;;29.00;29.00;15.30;99.90;;;;;;5057848;28;11703;-57
2021/12/03 04:28:25;;;;;;;;;28.00;28.00;15.20;99.90;;;;;;5055182;28;12705;-57
2021/12/03 04:30:57;;;;;;;;;35.00;32.75;15.20;99.90;;;;;;5055376;28;11539;-56
2021/12/03 04:33:29;;;;;;;;;31.00;30.00;15.20;99.90;;;;;;5059820;28;11573;-62
2021/12/03 04:36:00;;;;;;;;;33.50;32.00;15.20;99.90;;;;;;5061682;28;11549;-58
2021/12/03 04:38:30;;;;;;;;;36.75;33.75;15.20;99.90;;;;;;5056004;28;12300;-57
2021/12/03 04:41:03;;;;;;;;;32.00;31.00;15.20;99.90;;;;;;5059837;28;11583;-57
2021/12/03 04:43:34;;;;;;;;;37.75;34.75;15.20;99.90;;;;;;5061745;28;11800;-57
2021/12/03 04:46:05;;;;;;;;;34.25;33.00;15.10;99.90;;;;;;5062700;28;11642;-57
2021/12/03 04:48:36;;;;;;;;;36.25;34.00;15.10;99.90;;;;;;5064648;28;11536;-57
2021/12/03 04:51:06;;;;;;;;;31.00;29.50;15.00;99.90;;;;;;5067253;28;11596;-57
2021/12/03 04:53:37;;;;;;;;;37.25;33.75;15.10;99.90;;;;;;5067824;28;11720;-57
2021/12/03 04:56:08;;;;;;;;;34.75;33.25;15.10;99.90;;;;;;5066986;28;11698;-57
2021/12/03 04:58:38;;;;;;;;;40.75;36.50;15.10;99.90;;;;;;5068165;28;11612;-57
2021/12/03 05:01:09;;;;;;;;;40.25;36.25;15.00;99.90;;;;;;5063072;28;12747;-56
2021/12/03 05:03:41;;;;;;;;;40.25;36.25;15.10;99.90;;;;;;5066985;28;11544;-56
2021/12/03 05:06:15;;;;;;;;;34.50;33.25;15.10;99.90;;;;;;5044004;28;11622;-56
2021/12/03 05:08:45;;;;;;;;;39.75;35.00;15.10;99.90;;;;;;5063357;28;11684;-56
2021/12/03 05:11:16;;;;;;;;;42.75;37.00;15.10;99.90;;;;;;5065321;28;11585;-57
2021/12/03 05:13:47;;;;;;;;;45.00;39.25;15.00;99.90;;;;;;5077717;27;12824;-57
2021/12/03 05:16:17;;;;;;;;;42.25;37.25;15.00;99.90;;;;;;5060136;28;11558;-56
2021/12/03 05:18:48;;;;;;;;;47.00;39.25;15.00;99.90;;;;;;5064976;28;11558;-55
2021/12/03 05:21:19;;;;;;;;;43.50;38.00;15.00;99.90;;;;;;5062606;28;11764;-55
2021/12/03 05:23:49;;;;;;;;;44.75;38.25;15.00;99.90;;;;;;5067573;28;11640;-55
2021/12/03 05:26:18;;;;;;;;;41.25;36.75;15.00;99.90;;;;;;5061474;28;12528;-56
2021/12/03 05:28:49;;;;;;;;;47.50;39.50;15.00;99.90;;;;;;5059729;28;11615;-56
2021/12/03 05:31:20;;;;;;;;;49.50;41.50;15.00;99.90;;;;;;5064844;28;11604;-57
2021/12/03 05:33:50;;;;;;;;;46.00;40.00;15.00;99.90;;;;;;5061651;28;11543;-56
2021/12/03 05:36:22;;;;;;;;;49.50;41.75;14.90;99.90;;;;;;5064169;28;11555;-57
2021/12/03 05:38:55;;;;;;;;;49.00;42.00;15.00;99.90;;;;;;5069017;28;12315;-56
2021/12/03 05:41:35;;;;;;;;;51.00;43.75;15.00;99.90;;;;;;5062646;28;12317;-57
2021/12/03 05:44:07;;;;;;;;;40.50;36.50;15.00;99.90;;;;;;5068490;28;11575;-57
2021/12/03 05:46:37;;;;;;;;;45.50;39.25;15.00;99.90;;;;;;5064789;28;11676;-56
2021/12/03 05:49:08;;;;;;;;;43.50;38.00;15.00;99.90;;;;;;5059422;28;11689;-57
2021/12/03 05:51:39;;;;;;;;;46.50;40.00;15.00;99.90;;;;;;5058833;28;11631;-58
2021/12/03 05:54:10;;;;;;;;;52.25;44.50;15.00;99.90;;;;;;5066203;28;11574;-57
2021/12/03 05:56:40;;;;;;;;;50.00;41.50;15.00;99.90;;;;;;5061105;28;11545;-57
2021/12/03 05:59:11;;;;;;;;;49.50;42.00;15.00;99.90;;;;;;5067929;27;11588;-57
2021/12/03 06:01:42;;;;;;;;;51.00;43.00;14.90;99.90;;;;;;5069088;28;11566;-57
2021/12/03 06:04:13;;;;;;;;;52.50;44.75;14.90;99.90;;;;;;5068780;28;11591;-58
2021/12/03 06:06:42;;;;;;;;;52.25;44.25;14.90;99.90;;;;;;5064541;28;11552;-58
2021/12/03 06:09:12;;;;;;;;;49.25;42.50;14.90;99.90;;;;;;5068959;28;11681;-59
2021/12/03 06:11:42;;;;;;;;;47.00;40.00;14.90;99.90;;;;;;5063934;28;11714;-58
2021/12/03 06:14:14;;;;;;;;;48.00;40.50;14.80;99.90;;;;;;5068679;28;11599;-58
2021/12/03 06:16:44;;;;;;;;;48.00;40.75;14.80;99.90;;;;;;5066243;28;11681;-59
2021/12/03 06:19:15;;;;;;;;;46.25;40.00;14.80;99.90;;;;;;5063708;28;11762;-59
2021/12/03 06:21:46;;;;;;;;;50.25;43.00;14.80;99.90;;;;;;5071028;28;11686;-59
2021/12/03 06:24:17;;;;;;;;;47.50;41.00;14.90;99.90;;;;;;5061364;28;11673;-58
2021/12/03 06:26:48;;;;;;;;;49.25;41.00;14.90;99.90;;;;;;5066983;28;11711;-58
2021/12/03 06:29:19;;;;;;;;;50.75;43.25;14.90;99.90;;;;;;5079423;27;11582;-57
2021/12/03 06:31:48;;;;;;;;;48.25;41.75;14.90;99.90;;;;;;5067507;28;11583;-57
2021/12/03 06:34:20;;;;;;;;;46.25;39.50;14.80;99.90;;;;;;5063038;28;11550;-58
2021/12/03 06:36:50;;;;;;;;;49.75;43.00;14.80;99.90;;;;;;5063198;28;11543;-57
2021/12/03 06:39:23;;;;;;;;;53.75;45.25;14.90;99.90;;;;;;5065014;28;11572;-61
2021/12/03 06:41:54;;;;;;;;;51.00;44.00;14.90;99.90;;;;;;5051744;28;11604;-57
2021/12/03 06:44:25;;;;;;;;;48.75;40.75;14.90;99.90;;;;;;5066134;28;11696;-57
2021/12/03 06:46:56;;;;;;;;;48.25;41.00;14.80;99.90;;;;;;5066512;28;11544;-57
2021/12/03 06:49:28;;;;;;;;;54.25;45.50;14.80;99.90;;;;;;5071542;28;11679;-57
2021/12/03 06:52:05;;;;;;;;;51.00;43.00;14.80;99.90;;;;;;5059629;28;11594;-57
2021/12/03 06:54:37;;;;;;;;;51.00;43.50;14.80;99.90;;;;;;5075388;28;11558;-57
2021/12/03 06:57:08;;;;;;;;;52.00;43.75;14.80;99.90;;;;;;5063993;28;11710;-57
2021/12/03 06:59:41;;;;;;;;;52.50;44.25;14.80;99.90;;;;;;5070105;28;11731;-57
2021/12/03 07:02:13;;;;;;;;;50.00;42.50;14.80;99.90;;;;;;5059851;28;11595;-57
2021/12/03 07:04:44;;;;;;;;;50.00;43.00;14.70;99.90;;;;;;5062141;28;11551;-57
2021/12/03 07:07:16;;;;;;;;;55.00;45.25;14.70;99.90;;;;;;5065654;28;11735;-57
2021/12/03 07:09:48;;;;;;;;;51.25;43.75;14.70;99.90;;;;;;5061894;28;11599;-57
2021/12/03 07:12:19;;;;;;;;;53.00;43.75;14.70;99.90;;;;;;5062518;28;11556;-57
2021/12/03 07:14:50;;;;;;;;;45.75;38.50;14.70;99.90;;;;;;5062685;28;11578;-56
2021/12/03 07:17:20;;;;;;;;;55.00;46.25;14.70;99.90;;;;;;5072325;28;12946;-57
2021/12/03 07:19:55;;;;;;;;;53.75;45.25;14.70;99.90;;;;;;5061679;28;12280;-57
2021/12/03 07:22:27;;;;;;;;;55.25;45.75;14.70;99.90;;;;;;5062162;28;11538;-55
2021/12/03 07:24:58;;;;;;;;;53.25;44.25;14.60;99.90;;;;;;5061177;28;11580;-57
2021/12/03 07:27:30;;;;;;;;;52.25;44.75;14.60;99.90;;;;;;5060594;28;11552;-57
2021/12/03 07:30:01;;;;;;;;;55.25;46.50;14.60;99.90;;;;;;5058770;28;11505;-54
2021/12/03 07:32:31;;;;;;;;;53.75;44.75;14.60;99.90;;;;;;5058982;28;11599;-54
2021/12/03 07:35:02;;;;;;;;;52.00;44.25;14.60;99.90;;;;;;5060325;28;11567;-51
2021/12/03 07:37:33;;;;;;;;;51.25;43.00;14.60;99.90;;;;;;5063494;28;11616;-57
2021/12/03 07:40:09;;;;;;;;;49.25;41.50;14.60;99.90;;;;;;5062471;28;11577;-57
2021/12/03 07:42:39;;;;;;;;;54.00;45.25;14.70;99.90;;;;;;5062389;28;11516;-58
2021/12/03 07:45:12;;;;;;;;;56.00;46.50;14.60;99.90;;;;;;5065370;28;11716;-59
2021/12/03 07:47:41;;;;;;;;;53.00;45.00;14.60;99.90;;;;;;5063463;28;12354;-57
2021/12/03 07:50:14;;;;;;;;;53.25;46.00;14.60;99.90;;;;;;5062370;28;11559;-58
2021/12/03 07:52:45;;;;;;;;;53.00;44.50;14.50;99.90;;;;;;5060405;28;11552;-57
2021/12/03 07:55:16;;;;;;;;;51.50;44.00;14.60;99.90;;;;;;5060864;28;11560;-58
2021/12/03 07:57:52;;;;;;;;;52.00;44.00;14.60;99.90;;;;;;5062175;28;11572;-58
2021/12/03 08:00:23;;;;;;;;;50.75;42.75;14.60;99.90;;;;;;5055798;28;11578;-57
2021/12/03 08:03:13;;;;;;;;;57.75;47.75;14.60;99.90;;;;;;5063278;28;11577;-58
2021/12/03 08:05:45;;;;;;;;;52.25;44.00;14.60;99.90;;;;;;5059325;28;11580;-57
2021/12/03 08:08:22;;;;;;;;;53.25;45.75;14.60;99.90;;;;;;5060691;28;12709;-58
2021/12/03 08:10:55;;;;;;;;;54.25;46.00;14.60;99.90;;;;;;5056498;28;11563;-59
2021/12/03 08:13:25;;;;;;;;;56.25;45.75;14.50;99.90;;;;;;5040920;28;11583;-59
2021/12/03 08:15:56;;;;;;;;;56.25;47.00;14.50;99.90;;;;;;5064261;28;11593;-57
2021/12/03 08:18:26;;;;;;;;;56.25;47.00;14.50;99.90;;;;;;5057416;28;11591;-57
2021/12/03 08:20:57;;;;;;;;;55.00;46.25;14.50;99.90;;;;;;5063058;28;11612;-57
2021/12/03 08:23:27;;;;;;;;;53.75;46.00;14.60;99.90;;;;;;5063443;28;12488;-57
2021/12/03 08:25:58;;;;;;;;;52.50;44.50;14.60;99.90;;;;;;5059126;28;11556;-57
2021/12/03 08:28:29;;;;;;;;;55.50;47.25;14.60;99.90;;;;;;5058509;28;11554;-58
2021/12/03 08:30:59;;;;;;;;;58.50;48.00;14.60;99.90;;;;;;5060061;28;11537;-58
2021/12/03 08:33:29;;;;;;;;;54.50;45.75;14.60;99.90;;;;;;5060586;28;11549;-57
2021/12/03 08:36:00;;;;;;;;;54.50;46.25;14.50;99.90;;;;;;5061588;28;11573;-57
2021/12/03 08:38:32;;;;;;;;;60.50;48.75;14.50;99.90;;;;;;5058863;28;11558;-57
2021/12/03 08:41:15;;;;;;;;;57.75;48.75;14.50;99.90;;;;;;5063727;28;11615;-57
2021/12/03 08:43:48;;;;;;;;;58.75;49.00;14.50;99.90;;;;;;5056408;28;11527;-57
2021/12/03 08:46:34;;;;;;;;;56.00;47.25;14.40;99.90;;;;;;5060789;28;12365;-57
2021/12/03 08:55:04;;;;;;;;;57.50;46.75;14.40;99.90;;;;;;5057847;28;11526;-58
2021/12/03 08:57:36;;;;;;;;;58.25;48.25;14.30;99.90;;;;;;5069575;28;11567;-57
2021/12/03 09:00:18;;;;;;;;;54.50;45.75;14.30;99.90;;;;;;5059876;28;11553;-57
2021/12/03 09:02:48;;;;;;;;;55.00;46.50;14.30;99.90;;;;;;5068626;28;11677;-58
2021/12/03 09:05:19;;;;;;;;;55.75;47.50;14.30;99.90;;;;;;5063388;28;11592;-57
2021/12/03 09:07:49;;;;;;;;;59.75;49.75;14.30;99.90;;;;;;5055325;28;11587;-57
2021/12/03 09:10:32;;;;;;;;;51.00;44.00;14.30;99.90;;;;;;5064224;28;11568;-57
2021/12/03 09:13:03;;;;;;;;;55.25;46.50;14.30;99.90;;;;;;5053131;28;11585;-57
2021/12/03 09:15:46;;;;;;;;;51.25;42.50;14.30;99.90;;;;;;5057953;28;11699;-57
2021/12/03 09:20:56;;;;;;;;;59.00;48.25;14.40;99.90;;;;;;5057331;28;11575;-57
2021/12/03 09:26:18;;;;;;;;;61.25;50.50;14.40;99.90;;;;;;5055519;28;11564;-57
2021/12/03 09:29:03;;;;;;;;;52.25;44.25;14.40;99.90;;;;;;5060858;28;12267;-57
2021/12/03 09:31:36;;;;;;;;;56.50;47.25;14.30;99.90;;;;;;5069215;28;12352;-57
2021/12/03 09:34:10;;;;;;;;;59.75;50.00;14.40;99.90;;;;;;5060624;28;11565;-57
2021/12/03 09:36:42;;;;;;;;;58.25;48.75;14.30;99.90;;;;;;5066003;28;11561;-57
2021/12/03 09:39:19;;;;;;;;;56.25;46.75;14.40;99.90;;;;;;5064027;28;11612;-57
2021/12/03 09:41:54;;;;;;;;;59.00;48.75;14.30;99.90;;;;;;5060727;28;11623;-57
2021/12/03 09:44:30;;;;;;;;;57.00;48.00;14.30;99.90;;;;;;5073663;28;11584;-57
2021/12/03 09:47:00;;;;;;;;;57.75;48.00;14.30;99.90;;;;;;5066416;28;11580;-57
2021/12/03 09:49:34;;;;;;;;;57.50;48.25;14.30;99.90;;;;;;5063645;28;11595;-57
2021/12/03 09:54:40;;;;;;;;;57.50;48.50;14.30;99.90;;;;;;5066482;28;11550;-57
2021/12/03 09:57:22;;;;;;;;;58.50;47.75;14.30;99.90;;;;;;5055938;28;11700;-57
2021/12/03 10:00:18;;;;;;;;;61.00;50.00;14.30;99.90;;;;;;5062753;28;11535;-57
2021/12/03 10:14:02;;;;;;;;;62.25;51.75;14.30;99.90;;;;;;5063917;28;11565;-57
2021/12/03 10:17:15;;;;;;;;;63.75;51.50;14.30;99.90;;;;;;5065632;28;11606;-56
2021/12/03 10:20:20;;;;;;;;;59.00;49.00;14.30;99.90;;;;;;5065405;28;11578;-56
2021/12/03 10:34:03;;;;;;;;;64.50;52.75;14.30;99.90;;;;;;5055853;28;11569;-57
2021/12/03 10:47:48;;;;;;;;;59.25;48.00;14.30;99.90;;;;;;5065110;28;11551;-57
2021/12/03 10:50:41;;;;;;;;;61.75;50.25;14.30;99.90;;;;;;5063654;28;11543;-57
2021/12/03 10:53:53;;;;;;;;;58.50;49.00;14.20;99.90;;;;;;5062799;28;12328;-57
2021/12/03 10:56:31;;;;;;;;;60.00;49.50;14.20;99.90;;;;;;5062701;28;11568;-57
2021/12/03 10:59:50;;;;;;;;;61.25;49.75;14.20;99.90;;;;;;5059485;28;11563;-57
2021/12/03 11:03:10;;;;;;;;;57.50;48.00;14.20;99.90;;;;;;5055755;28;11655;-56
2021/12/03 11:12:47;;;;;;;;;58.25;48.00;14.20;99.90;;;;;;5059743;28;11695;-56
2021/12/03 11:20:53;;;;;;;;;64.00;51.00;14.20;99.90;;;;;;5059412;28;11548;-56
2021/12/03 11:43:02;;;;;;;;;58.50;48.75;14.10;99.90;;;;;;5063498;28;12355;-57
2021/12/03 11:46:30;;;;;;;;;59.25;48.00;14.10;99.90;;;;;;5055485;28;12777;-57
2021/12/03 12:58:38;;;;;;;;;56.00;47.25;14.10;99.90;;;;;;5058261;28;11587;-56
2021/12/03 13:25:47;;;;;;;;;57.00;46.25;14.00;99.90;;;;;;5059139;28;11583;-57
2021/12/03 13:29:24;;;;;;;;;59.00;49.00;14.00;99.90;;;;;;5061593;28;11572;-57
2021/12/03 13:35:22;;;;;;;;;56.25;47.25;14.00;99.90;;;;;;5063031;28;12362;-57
2021/12/03 13:56:36;;;;;;;;;55.50;46.50;14.00;99.90;;;;;;5063372;28;11543;-57
2021/12/03 14:51:42;;;;;;;;;56.50;47.00;14.10;99.90;;;;;;5062650;28;11583;-55
2021/12/03 14:54:26;;;;;;;;;58.00;47.50;14.10;99.90;;;;;;5059631;28;11560;-56
2021/12/03 14:57:40;;;;;;;;;55.00;46.00;14.10;99.90;;;;;;5058764;28;12439;-55
2021/12/03 15:05:49;;;;;;;;;58.00;48.00;14.10;99.90;;;;;;5062340;28;11627;-55
2021/12/03 15:08:26;;;;;;;;;62.75;50.75;14.10;99.90;;;;;;5061975;28;11575;-56
2021/12/03 15:19:45;;;;;;;;;60.75;48.50;14.10;99.90;;;;;;5063713;28;11582;-54
2021/12/03 15:33:07;;;;;;;;;55.50;46.00;14.10;99.90;;;;;;5064366;28;11524;-57
2021/12/03 15:38:50;;;;;;;;;56.50;46.25;14.10;99.90;;;;;;5075127;27;11587;-56
2021/12/03 15:41:47;;;;;;;;;58.50;47.75;14.10;99.90;;;;;;5064424;28;12161;-57
2021/12/03 15:58:36;;;;;;;;;60.50;50.00;14.10;99.90;;;;;;5059700;28;11691;-57
2021/12/03 16:04:25;;;;;;;;;56.25;47.00;14.10;99.90;;;;;;5069447;28;11607;-57
2021/12/03 16:07:00;;;;;;;;;56.25;47.25;14.10;99.90;;;;;;5065515;28;11548;-57
2021/12/03 16:12:22;;;;;;;;;55.50;47.00;14.10;99.90;;;;;;5071421;28;11548;-56
2021/12/03 16:18:08;;;;;;;;;59.00;48.50;14.10;99.90;;;;;;5060522;28;11554;-55
2021/12/03 16:23:49;;;;;;;;;57.00;48.00;14.20;99.90;;;;;;5064861;28;11564;-57
2021/12/03 16:54:08;;;;;;;;;58.00;48.00;14.10;99.90;;;;;;5070485;28;11686;-57
2021/12/03 16:56:48;;;;;;;;;51.50;42.75;14.10;99.90;;;;;;5063929;28;11557;-57
2021/12/03 16:59:19;;;;;;;;;58.75;48.00;14.10;99.90;;;;;;5054407;28;11622;-57
2021/12/03 17:02:15;;;;;;;;;58.00;48.00;14.20;99.90;;;;;;5083059;28;11628;-56
2021/12/03 17:13:28;;;;;;;;;55.25;46.00;14.20;99.90;;;;;;5073012;28;11582;-57
2021/12/03 17:30:14;;;;;;;;;58.25;48.50;14.20;99.90;;;;;;5067659;28;12319;-58
2021/12/03 17:49:40;;;;;;;;;55.50;46.75;14.20;99.90;;;;;;5057671;28;11600;-58
2021/12/03 17:52:29;;;;;;;;;55.75;46.00;14.20;99.90;;;;;;5058892;28;11599;-57
2021/12/03 17:55:27;;;;;;;;;59.25;45.50;14.20;99.90;;;;;;5065644;28;12011;-56
2021/12/03 17:58:04;;;;;;;;;55.75;46.50;14.20;99.90;;;;;;5059496;28;11561;-56
2021/12/03 18:00:46;;;;;;;;;56.00;46.75;14.30;99.90;;;;;;5064621;28;11733;-56
2021/12/03 18:04:04;;;;;;;;;58.50;47.25;14.30;99.90;;;;;;5062440;28;11651;-57
2021/12/03 18:06:41;;;;;;;;;58.50;48.25;14.30;99.90;;;;;;5068634;28;11738;-56
2021/12/03 18:15:34;;;;;;;;;55.25;45.50;14.20;99.90;;;;;;5063520;28;11581;-57
2021/12/03 18:17:46;;;;;;;;;56.00;46.00;14.20;99.90;;;;;;5061858;28;12317;-57
2021/12/03 18:51:51;;;;;;;;;52.25;44.25;14.30;99.90;;;;;;5063073;28;11641;-56
2021/12/03 18:54:29;;;;;;;;;58.25;48.25;14.30;99.90;;;;;;5065476;28;11577;-56
2021/12/03 18:56:52;;;;;;;;;58.25;47.50;14.30;99.90;;;;;;5065787;28;12766;-57
2021/12/03 18:59:25;;;;;;;;;59.50;47.50;14.30;99.90;;;;;;5064024;28;12326;-51
2021/12/03 19:01:58;;;;;;;;;54.75;45.50;14.30;99.90;;;;;;5084102;27;11569;-56
2021/12/03 19:04:52;;;;;;;;;53.50;45.00;14.30;99.90;;;;;;5063643;28;11781;-56
2021/12/03 19:07:42;;;;;;;;;59.00;48.00;14.30;99.90;;;;;;5066157;28;11615;-56
2021/12/03 19:10:22;;;;;;;;;59.00;49.50;14.20;99.90;;;;;;5060672;28;12051;-55
2021/12/03 19:13:07;;;;;;;;;58.75;48.00;14.20;99.90;;;;;;5056975;28;11699;-56
2021/12/03 19:15:40;;;;;;;;;64.00;52.75;14.20;99.90;;;;;;5074953;28;11595;-55
2021/12/03 19:18:11;;;;;;;;;53.00;44.25;14.20;99.90;;;;;;5060375;28;12343;-60
2021/12/03 19:20:52;;;;;;;;;61.50;49.75;14.20;99.90;;;;;;5060573;28;11571;-55
2021/12/03 19:23:23;;;;;;;;;57.00;46.00;14.20;99.90;;;;;;5064401;28;11556;-55
2021/12/03 19:25:54;;;;;;;;;56.50;46.50;14.20;99.90;;;;;;5046100;28;11739;-57
2021/12/03 19:28:24;;;;;;;;;56.00;46.00;14.20;99.90;;;;;;5063465;28;12314;-57
2021/12/03 19:30:57;;;;;;;;;55.25;46.25;14.20;99.90;;;;;;5063472;28;11546;-56
2021/12/03 19:33:27;;;;;;;;;59.75;47.75;14.20;99.90;;;;;;5065177;28;11617;-57
2021/12/03 19:35:58;;;;;;;;;59.00;47.25;14.20;99.90;;;;;;5067005;28;11575;-57
2021/12/03 19:38:30;;;;;;;;;59.25;49.25;14.20;99.90;;;;;;5065526;28;11634;-56
2021/12/03 19:41:03;;;;;;;;;60.00;49.00;14.20;99.90;;;;;;5058595;28;11736;-57
2021/12/03 19:44:10;;;;;;;;;54.25;45.50;14.20;99.90;;;;;;5062146;28;11547;-57
2021/12/03 19:46:33;;;;;;;;;59.00;50.00;14.20;99.90;;;;;;5061272;28;11569;-57
2021/12/03 19:49:14;;;;;;;;;62.50;51.00;14.20;99.90;;;;;;5056688;28;11611;-57
2021/12/03 19:51:54;;;;;;;;;54.75;46.00;14.30;99.90;;;;;;5062240;28;11550;-60